createdAt,value
2017-11-30T00:01:15.658Z,10.90
2017-11-30T00:03:53.514Z,10.90
2017-11-30T00:11:56.427Z,10.60
2017-11-30T00:14:34.077Z,10.50
2017-11-30T00:17:09.568Z,10.40
2017-11-30T00:19:57.093Z,10.40
2017-11-30T00:22:32.800Z,10.20
2017-11-30T00:25:07.879Z,9.70
2017-11-30T00:27:43.078Z,9.50
2017-11-30T00:30:25.259Z,9.40
2017-11-30T00:32:59.089Z,9.10
2017-11-30T00:35:33.430Z,8.90
2017-11-30T00:38:09.516Z,8.90
2017-11-30T00:40:44.568Z,8.60
2017-11-30T00:46:22.036Z,8.10
2017-11-30T00:49:04.522Z,7.80
2017-11-30T00:51:40.130Z,8.10
2017-11-30T00:54:14.676Z,7.80
2017-11-30T00:56:49.749Z,7.60
2017-11-30T00:59:25.806Z,7.60
2017-11-30T01:02:00.162Z,7.40
2017-11-30T01:04:43.718Z,7.60
2017-11-30T01:07:18.322Z,7.60
2017-11-30T01:09:51.752Z,7.30
2017-11-30T01:12:26.679Z,7.20
2017-11-30T01:15:02.894Z,7.10
2017-11-30T01:17:38.262Z,7.00
2017-11-30T01:20:19.583Z,7.10
2017-11-30T01:22:55.014Z,7.30
2017-11-30T01:25:30.455Z,7.20
2017-11-30T01:28:05.438Z,7.30
2017-11-30T01:30:40.245Z,7.20
2017-11-30T01:35:55.282Z,6.90
2017-11-30T01:38:32.075Z,6.80
2017-11-30T01:41:07.131Z,6.60
2017-11-30T01:43:43.164Z,6.70
2017-11-30T01:46:19.809Z,6.60
2017-11-30T01:48:59.540Z,6.70
2017-11-30T01:51:40.166Z,6.60
2017-11-30T01:54:18.806Z,6.80
2017-11-30T01:56:53.660Z,6.70
2017-11-30T01:59:28.022Z,6.70
2017-11-30T02:02:02.620Z,6.70
2017-11-30T02:04:39.180Z,6.60
2017-11-30T02:07:20.892Z,6.30
2017-11-30T02:09:55.983Z,6.30
2017-11-30T02:12:31.861Z,6.50
2017-11-30T02:15:16.664Z,6.40
2017-11-30T02:17:52.525Z,6.40
2017-11-30T02:20:26.793Z,6.30
2017-11-30T02:23:05.115Z,6.40
2017-11-30T02:25:40.067Z,6.30
2017-11-30T02:28:15.941Z,6.30
2017-11-30T02:30:52.188Z,6.30
2017-11-30T02:33:29.804Z,6.30
2017-11-30T02:38:43.221Z,6.30
2017-11-30T02:41:18.046Z,6.40
2017-11-30T02:43:56.742Z,6.30
2017-11-30T02:46:33.201Z,6.30
2017-11-30T02:49:09.538Z,6.30
2017-11-30T02:51:42.852Z,6.70
2017-11-30T02:54:21.715Z,6.40
2017-11-30T02:57:04.109Z,6.80
2017-11-30T02:59:42.023Z,6.80
2017-11-30T03:02:18.277Z,6.60
2017-11-30T03:04:52.119Z,6.90
2017-11-30T03:07:27.168Z,7.20
2017-11-30T03:10:02.669Z,7.00
2017-11-30T03:12:37.876Z,7.10
2017-11-30T03:15:12.764Z,7.00
2017-11-30T03:17:47.787Z,7.60
2017-11-30T03:20:23.732Z,7.20
2017-11-30T03:22:59.184Z,7.50
2017-11-30T03:25:35.121Z,7.20
2017-11-30T03:28:18.632Z,7.00
2017-11-30T03:30:53.229Z,7.50
2017-11-30T03:33:27.665Z,7.00
2017-11-30T03:36:10.905Z,7.50
2017-11-30T03:38:44.850Z,7.60
2017-11-30T03:41:18.241Z,7.00
2017-11-30T03:43:54.254Z,7.60
2017-11-30T03:46:28.497Z,7.50
2017-11-30T03:49:02.660Z,7.30
2017-11-30T03:51:38.298Z,7.50
2017-11-30T03:54:13.585Z,7.40
2017-11-30T03:56:48.303Z,7.00
2017-11-30T03:59:29.946Z,7.50
2017-11-30T04:02:16.427Z,7.30
2017-11-30T04:04:56.531Z,7.00
2017-11-30T04:07:37.090Z,7.10
2017-11-30T04:10:10.549Z,7.00
2017-11-30T04:12:46.534Z,7.10
2017-11-30T04:15:21.831Z,7.00
2017-11-30T04:17:55.680Z,7.00
2017-11-30T04:20:37.781Z,7.50
2017-11-30T04:23:16.823Z,7.10
2017-11-30T04:25:54.911Z,7.00
2017-11-30T04:28:38.081Z,7.00
2017-11-30T04:31:13.083Z,7.10
2017-11-30T04:33:48.150Z,6.90
2017-11-30T04:36:24.748Z,6.90
2017-11-30T04:39:00.638Z,6.90
2017-11-30T04:41:38.781Z,6.90
2017-11-30T04:44:20.798Z,6.90
2017-11-30T04:46:55.182Z,6.60
2017-11-30T04:49:29.608Z,6.70
2017-11-30T04:52:11.829Z,6.90
2017-11-30T04:54:50.109Z,6.40
2017-11-30T04:57:25.771Z,6.30
2017-11-30T05:02:44.570Z,6.30
2017-11-30T05:07:57.966Z,6.30
2017-11-30T05:10:42.536Z,6.00
2017-11-30T05:13:23.328Z,6.00
2017-11-30T05:16:01.356Z,6.00
2017-11-30T05:18:37.271Z,5.90
2017-11-30T05:21:13.353Z,6.00
2017-11-30T05:23:47.732Z,5.90
2017-11-30T05:26:23.763Z,5.90
2017-11-30T05:28:59.093Z,5.60
2017-11-30T05:31:34.992Z,5.80
2017-11-30T05:34:10.033Z,5.60
2017-11-30T05:36:46.179Z,5.80
2017-11-30T05:39:20.333Z,5.60
2017-11-30T05:41:58.913Z,5.70
2017-11-30T05:44:40.547Z,5.70
2017-11-30T05:47:20.779Z,5.60
2017-11-30T05:49:56.054Z,5.70
2017-11-30T05:52:34.374Z,5.70
2017-11-30T05:55:11.700Z,5.70
2017-11-30T05:57:47.132Z,5.70
2017-11-30T06:00:23.176Z,5.70
2017-11-30T06:02:57.813Z,5.70
2017-11-30T06:05:34.061Z,5.70
2017-11-30T06:08:09.032Z,5.50
2017-11-30T06:10:45.710Z,5.50
2017-11-30T06:13:21.913Z,5.70
2017-11-30T06:15:58.919Z,5.40
2017-11-30T06:18:36.905Z,5.40
2017-11-30T06:21:09.807Z,5.80
2017-11-30T06:23:46.816Z,5.70
2017-11-30T06:26:24.958Z,5.60
2017-11-30T06:28:59.481Z,5.50
2017-11-30T06:31:32.884Z,5.70
2017-11-30T06:34:07.417Z,5.70
2017-11-30T06:36:42.482Z,5.40
2017-11-30T06:39:18.008Z,5.30
2017-11-30T06:41:51.766Z,5.40
2017-11-30T06:44:26.030Z,5.40
2017-11-30T06:47:02.954Z,5.50
2017-11-30T06:49:45.590Z,5.50
2017-11-30T06:52:21.300Z,5.40
2017-11-30T06:54:55.279Z,5.20
2017-11-30T06:57:34.182Z,5.30
2017-11-30T07:00:08.174Z,5.60
2017-11-30T07:02:49.760Z,5.10
2017-11-30T07:05:25.911Z,5.10
2017-11-30T07:08:00.843Z,5.00
2017-11-30T07:10:33.898Z,5.00
2017-11-30T07:13:09.995Z,5.10
2017-11-30T07:16:02.982Z,4.80
2017-11-30T07:18:36.970Z,4.70
2017-11-30T07:21:14.677Z,4.70
2017-11-30T07:23:50.392Z,4.70
2017-11-30T07:26:25.389Z,4.90
2017-11-30T07:29:01.373Z,4.50
2017-11-30T07:31:38.971Z,4.80
2017-11-30T07:34:14.640Z,4.50
2017-11-30T07:36:49.944Z,4.90
2017-11-30T07:39:27.467Z,4.60
2017-11-30T07:42:02.608Z,4.50
2017-11-30T07:44:37.711Z,4.30
2017-11-30T07:47:14.928Z,4.60
2017-11-30T07:49:49.761Z,4.50
2017-11-30T07:52:25.753Z,4.50
2017-11-30T07:55:00.990Z,4.60
2017-11-30T07:57:40.206Z,4.50
2017-11-30T08:00:16.601Z,4.50
2017-11-30T08:02:51.645Z,4.60
2017-11-30T08:05:28.306Z,4.50
2017-11-30T08:08:02.676Z,4.60
2017-11-30T08:10:38.407Z,4.30
2017-11-30T08:13:16.933Z,4.50
2017-11-30T08:15:52.023Z,4.10
2017-11-30T08:18:33.435Z,4.20
2017-11-30T08:21:08.413Z,3.90
2017-11-30T08:23:44.950Z,3.90
2017-11-30T08:26:21.174Z,4.00
2017-11-30T08:29:03.744Z,4.00
2017-11-30T08:31:39.829Z,4.00
2017-11-30T08:34:13.967Z,4.10
2017-11-30T08:36:51.123Z,4.20
2017-11-30T08:39:32.043Z,4.00
2017-11-30T08:42:05.681Z,4.00
2017-11-30T08:44:48.926Z,4.20
2017-11-30T08:47:23.562Z,3.80
2017-11-30T08:49:58.238Z,4.30
2017-11-30T08:52:32.363Z,4.00
2017-11-30T08:55:07.566Z,4.00
2017-11-30T08:57:42.641Z,4.00
2017-11-30T09:00:17.856Z,4.00
2017-11-30T09:03:00.999Z,4.00
2017-11-30T09:05:34.313Z,3.90
2017-11-30T09:08:09.051Z,4.00
2017-11-30T09:10:44.879Z,4.00
2017-11-30T09:13:20.603Z,4.20
2017-11-30T09:15:56.600Z,4.20
2017-11-30T09:18:31.593Z,4.10
2017-11-30T09:21:06.739Z,3.70
2017-11-30T09:23:41.947Z,4.20
2017-11-30T09:26:17.934Z,4.30
2017-11-30T09:28:57.864Z,4.20
2017-11-30T09:31:34.461Z,4.30
2017-11-30T09:34:08.166Z,4.20
2017-11-30T09:36:50.398Z,4.20
2017-11-30T09:39:25.936Z,4.20
2017-11-30T09:42:09.611Z,4.50
2017-11-30T09:44:44.655Z,4.50
2017-11-30T09:47:19.275Z,4.30
2017-11-30T09:49:53.710Z,4.50
2017-11-30T09:52:28.790Z,4.50
2017-11-30T09:55:10.241Z,4.40
2017-11-30T09:57:44.762Z,4.50
2017-11-30T10:00:20.775Z,4.90
2017-11-30T10:02:55.382Z,4.80
2017-11-30T10:05:31.040Z,4.60
2017-11-30T10:08:05.807Z,4.50
2017-11-30T10:10:41.934Z,4.50
2017-11-30T10:13:19.418Z,4.40
2017-11-30T10:15:56.119Z,4.80
2017-11-30T10:18:35.656Z,4.50
2017-11-30T10:21:19.217Z,4.80
2017-11-30T10:23:55.238Z,4.70
2017-11-30T10:26:30.410Z,4.80
2017-11-30T10:29:05.516Z,4.90
2017-11-30T10:31:42.266Z,4.50
2017-11-30T10:34:25.851Z,4.80
2017-11-30T10:37:06.612Z,4.80
2017-11-30T10:39:42.830Z,5.00
2017-11-30T10:42:23.121Z,4.80
2017-11-30T10:44:57.638Z,5.10
2017-11-30T10:47:31.987Z,4.60
2017-11-30T10:50:07.044Z,4.70
2017-11-30T10:52:44.430Z,5.10
2017-11-30T10:55:19.663Z,4.80
2017-11-30T10:58:03.379Z,5.30
2017-11-30T11:00:38.299Z,5.00
2017-11-30T11:03:15.484Z,5.10
2017-11-30T11:05:50.690Z,5.10
2017-11-30T11:08:36.324Z,5.10
2017-11-30T11:11:11.963Z,4.80
2017-11-30T11:13:49.249Z,4.70
2017-11-30T11:16:25.041Z,5.10
2017-11-30T11:19:02.378Z,5.00
2017-11-30T11:21:37.442Z,4.80
2017-11-30T11:24:13.987Z,5.10
2017-11-30T11:26:49.090Z,4.90
2017-11-30T11:29:33.441Z,4.90
2017-11-30T11:32:10.032Z,4.80
2017-11-30T11:34:45.067Z,4.70
2017-11-30T11:37:18.412Z,5.10
2017-11-30T11:40:00.422Z,5.10
2017-11-30T11:42:36.319Z,4.90
2017-11-30T11:45:15.028Z,5.10
2017-11-30T11:47:50.063Z,5.10
2017-11-30T11:50:25.115Z,5.00
2017-11-30T11:53:00.271Z,5.10
2017-11-30T11:55:39.916Z,5.10
2017-11-30T11:58:14.926Z,5.10
2017-11-30T12:01:05.184Z,5.10
2017-11-30T12:03:40.281Z,5.20
2017-11-30T12:06:21.812Z,5.30
2017-11-30T12:08:55.663Z,5.30
2017-11-30T12:11:29.786Z,5.30
2017-11-30T12:14:04.396Z,5.00
2017-11-30T12:16:46.321Z,5.10
2017-11-30T12:19:22.464Z,5.10
2017-11-30T12:21:57.405Z,5.30
2017-11-30T12:24:34.405Z,5.30
2017-11-30T12:27:09.617Z,5.10
2017-11-30T12:29:46.419Z,5.30
2017-11-30T12:32:21.957Z,5.30
2017-11-30T12:34:58.080Z,5.40
2017-11-30T12:37:33.156Z,5.40
2017-11-30T12:40:10.524Z,5.40
2017-11-30T12:42:45.818Z,5.40
2017-11-30T12:45:26.523Z,5.40
2017-11-30T12:48:00.808Z,5.40
2017-11-30T12:50:37.627Z,5.50
2017-11-30T12:53:26.440Z,5.40
2017-11-30T12:56:02.073Z,5.40
2017-11-30T12:58:35.119Z,5.50
2017-11-30T13:01:10.639Z,5.20
2017-11-30T13:03:46.942Z,5.10
2017-11-30T13:06:29.964Z,5.00
2017-11-30T13:09:05.166Z,5.20
2017-11-30T13:11:42.038Z,5.00
2017-11-30T13:14:16.348Z,5.10
2017-11-30T13:16:53.478Z,5.20
2017-11-30T13:19:28.690Z,5.10
2017-11-30T13:22:01.546Z,5.40
2017-11-30T13:24:42.764Z,5.20
2017-11-30T13:27:17.350Z,5.30
2017-11-30T13:29:56.171Z,5.30
2017-11-30T13:32:29.016Z,5.40
2017-11-30T13:37:56.455Z,5.20
2017-11-30T13:40:35.675Z,5.40
2017-11-30T13:43:15.172Z,5.30
2017-11-30T13:48:31.602Z,5.30
2017-11-30T13:51:05.988Z,5.30
2017-11-30T13:53:40.325Z,5.40
2017-11-30T13:56:34.247Z,5.40
2017-11-30T13:59:09.305Z,5.10
2017-11-30T14:01:44.650Z,5.30
2017-11-30T14:04:20.078Z,4.90
2017-11-30T14:07:03.864Z,5.00
2017-11-30T14:09:41.166Z,5.30
2017-11-30T14:12:15.704Z,5.40
2017-11-30T14:14:49.789Z,5.30
2017-11-30T14:17:25.663Z,5.20
2017-11-30T14:20:00.733Z,5.40
2017-11-30T14:22:35.128Z,5.30
2017-11-30T14:25:18.738Z,5.40
2017-11-30T14:27:57.377Z,5.40
2017-11-30T14:30:32.542Z,5.40
2017-11-30T14:33:07.617Z,5.40
2017-11-30T14:35:42.933Z,5.30
2017-11-30T14:38:17.743Z,5.20
2017-11-30T14:40:58.180Z,5.40
2017-11-30T14:43:36.080Z,5.30
2017-11-30T14:46:11.165Z,5.30
2017-11-30T14:48:47.021Z,5.40
2017-11-30T14:51:22.067Z,5.40
2017-11-30T14:53:57.179Z,5.40
2017-11-30T14:56:32.337Z,5.30
2017-11-30T14:59:07.345Z,5.30
2017-11-30T15:01:42.394Z,5.30
2017-11-30T15:04:18.570Z,5.30
2017-11-30T15:06:54.315Z,5.60
2017-11-30T15:09:30.970Z,5.60
2017-11-30T15:12:06.063Z,5.30
2017-11-30T15:14:45.840Z,5.40
2017-11-30T15:17:21.998Z,5.50
2017-11-30T15:19:58.704Z,5.50
2017-11-30T15:22:34.162Z,5.60
2017-11-30T15:25:09.469Z,5.60
2017-11-30T15:27:45.451Z,5.70
2017-11-30T15:30:20.930Z,5.70
2017-11-30T15:32:55.194Z,5.60
2017-11-30T15:35:30.298Z,5.70
2017-11-30T15:38:04.218Z,5.70
2017-11-30T15:40:39.278Z,5.70
2017-11-30T15:43:14.365Z,5.60
2017-11-30T15:45:50.275Z,5.70
2017-11-30T15:48:25.188Z,5.70
2017-11-30T15:51:01.948Z,5.70
2017-11-30T15:53:37.080Z,5.60
2017-11-30T15:56:22.155Z,5.50
2017-11-30T15:58:57.336Z,5.30
2017-11-30T16:01:32.193Z,5.60
2017-11-30T16:04:11.149Z,5.60
2017-11-30T16:06:55.462Z,5.80
2017-11-30T16:09:30.430Z,5.70
2017-11-30T16:12:06.565Z,5.70
2017-11-30T16:14:42.580Z,5.80
2017-11-30T16:17:21.970Z,5.80
2017-11-30T16:19:59.967Z,5.60
2017-11-30T16:22:36.135Z,5.50
2017-11-30T16:25:16.450Z,5.70
2017-11-30T16:27:51.544Z,5.80
2017-11-30T16:30:28.541Z,5.60
2017-11-30T16:33:02.260Z,5.90
2017-11-30T16:35:36.602Z,5.90
2017-11-30T16:38:13.880Z,6.10
2017-11-30T16:40:52.686Z,5.90
2017-11-30T16:43:27.150Z,6.10
2017-11-30T16:46:02.351Z,6.40
2017-11-30T16:48:36.791Z,6.10
2017-11-30T16:51:12.103Z,6.20
2017-11-30T16:53:48.588Z,6.30
2017-11-30T16:56:26.165Z,6.40
2017-11-30T16:59:00.574Z,6.40
2017-11-30T17:01:37.033Z,6.20
2017-11-30T17:04:14.452Z,6.00
2017-11-30T17:06:50.468Z,6.20
2017-11-30T17:09:25.518Z,6.00
2017-11-30T17:12:04.592Z,6.10
2017-11-30T17:14:39.897Z,6.00
2017-11-30T17:17:17.477Z,6.00
2017-11-30T17:19:54.318Z,6.30
2017-11-30T17:22:29.699Z,6.50
2017-11-30T17:25:05.083Z,6.30
2017-11-30T17:27:41.148Z,6.30
2017-11-30T17:30:16.443Z,6.40
2017-11-30T17:33:00.337Z,6.40
2017-11-30T17:35:36.214Z,6.40
2017-11-30T17:38:11.492Z,6.70
2017-11-30T17:40:48.018Z,6.40
2017-11-30T17:43:24.344Z,6.60
2017-11-30T17:46:00.499Z,6.70
2017-11-30T17:48:34.636Z,6.70
2017-11-30T17:51:09.873Z,6.80
2017-11-30T17:53:44.978Z,6.60
2017-11-30T17:56:19.890Z,6.60
2017-11-30T17:59:01.305Z,6.60
2017-11-30T18:01:44.914Z,6.60
2017-11-30T18:04:24.503Z,6.60
2017-11-30T18:07:00.237Z,6.60
2017-11-30T18:09:35.546Z,6.80
2017-11-30T18:12:11.851Z,6.60
2017-11-30T18:14:48.684Z,6.60
2017-11-30T18:17:25.023Z,6.80
2017-11-30T18:20:00.856Z,7.00
2017-11-30T18:22:43.256Z,7.00
2017-11-30T18:25:17.847Z,7.20
2017-11-30T18:27:52.201Z,7.30
2017-11-30T18:30:28.374Z,7.00
2017-11-30T18:33:05.110Z,7.30
2017-11-30T18:35:43.883Z,7.00
2017-11-30T18:38:17.290Z,7.10
2017-11-30T18:40:50.071Z,6.90
2017-11-30T18:43:24.364Z,6.80
2017-11-30T18:46:00.905Z,6.70
2017-11-30T18:48:35.288Z,6.80
2017-11-30T18:51:11.244Z,6.70
2017-11-30T18:53:50.704Z,6.60
2017-11-30T18:56:33.272Z,6.90
2017-11-30T19:02:08.877Z,7.40
2017-11-30T19:04:43.982Z,7.50
2017-11-30T19:07:19.601Z,6.90
2017-11-30T19:09:52.621Z,6.90
2017-11-30T19:12:26.098Z,7.00
2017-11-30T19:15:03.215Z,7.10
2017-11-30T19:17:38.253Z,7.10
2017-11-30T19:20:21.199Z,7.30
2017-11-30T19:22:55.116Z,7.40
2017-11-30T19:25:31.229Z,7.50
2017-11-30T19:28:06.400Z,7.50
2017-11-30T19:30:42.590Z,7.80
2017-11-30T19:33:19.371Z,7.60
2017-11-30T19:35:56.586Z,7.70
2017-11-30T19:38:33.271Z,7.90
2017-11-30T19:41:08.222Z,7.70
2017-11-30T19:43:43.710Z,7.90
2017-11-30T19:46:18.102Z,8.10
2017-11-30T19:49:00.101Z,8.00
2017-11-30T19:51:34.827Z,7.90
2017-11-30T19:54:09.940Z,8.30
2017-11-30T19:56:45.004Z,8.10
2017-11-30T19:59:20.006Z,8.00
2017-11-30T20:01:54.642Z,7.70
2017-11-30T20:04:37.138Z,7.80
2017-11-30T20:09:47.087Z,8.10
2017-11-30T20:12:27.177Z,8.10
2017-11-30T20:15:01.502Z,8.20
2017-11-30T20:17:35.580Z,8.00
2017-11-30T20:20:10.717Z,8.00
2017-11-30T20:22:53.416Z,7.70
2017-11-30T20:25:28.601Z,8.20
2017-11-30T20:28:03.536Z,7.90
2017-11-30T20:30:38.621Z,7.80
2017-11-30T20:33:13.673Z,8.20
2017-11-30T20:35:48.150Z,8.30
2017-11-30T20:38:31.018Z,7.70
2017-11-30T20:41:06.098Z,7.90
2017-11-30T20:43:41.277Z,7.90
2017-11-30T20:46:16.436Z,7.40
2017-11-30T20:48:51.264Z,7.70
2017-11-30T20:51:29.689Z,7.90
2017-11-30T20:54:05.013Z,7.90
2017-11-30T20:56:39.289Z,7.90
2017-11-30T20:59:14.462Z,7.80
2017-11-30T21:01:51.024Z,8.00
2017-11-30T21:04:26.622Z,8.00
2017-11-30T21:07:03.112Z,8.30
2017-11-30T21:09:40.530Z,8.20
2017-11-30T21:12:16.695Z,8.30
2017-11-30T21:15:00.242Z,8.60
2017-11-30T21:17:35.272Z,8.70
2017-11-30T21:20:09.643Z,8.60
2017-11-30T21:22:52.615Z,8.50
2017-11-30T21:25:37.400Z,8.60
2017-11-30T21:28:13.041Z,8.50
2017-11-30T21:30:46.575Z,8.70
2017-11-30T21:33:21.164Z,8.30
2017-11-30T21:35:57.433Z,8.20
2017-11-30T21:38:31.129Z,8.60
2017-11-30T21:41:07.822Z,8.60
2017-11-30T21:43:44.643Z,8.50
2017-11-30T21:46:21.039Z,8.70
2017-11-30T21:48:55.075Z,8.70
2017-11-30T21:51:28.485Z,8.70
2017-11-30T21:54:04.379Z,8.90
2017-11-30T21:56:39.288Z,8.60
2017-11-30T21:59:15.706Z,9.00
2017-11-30T22:01:50.892Z,8.60
2017-11-30T22:04:25.999Z,8.60
2017-11-30T22:07:02.609Z,8.70
2017-11-30T22:09:38.495Z,8.80
2017-11-30T22:12:12.634Z,9.00
2017-11-30T22:14:47.208Z,9.00
2017-11-30T22:17:25.934Z,8.80
2017-11-30T22:20:04.320Z,8.90
2017-11-30T22:22:47.414Z,8.80
2017-11-30T22:25:22.692Z,8.90
2017-11-30T22:27:59.187Z,8.70
2017-11-30T22:30:35.598Z,8.60
2017-11-30T22:33:09.197Z,8.60
2017-11-30T22:35:43.407Z,8.70
2017-11-30T22:38:18.470Z,8.60
2017-11-30T22:40:52.938Z,8.70
2017-11-30T22:43:28.836Z,8.60
2017-11-30T22:46:03.500Z,8.50
2017-11-30T22:48:41.421Z,8.70
2017-11-30T22:51:19.112Z,8.50
2017-11-30T22:54:03.346Z,8.60
2017-11-30T22:56:36.965Z,8.60
2017-11-30T22:59:16.167Z,8.60
2017-11-30T23:01:52.395Z,8.40
2017-11-30T23:04:29.743Z,8.60
2017-11-30T23:07:05.503Z,8.60
2017-11-30T23:09:40.784Z,8.70
2017-11-30T23:12:23.154Z,8.70
2017-11-30T23:14:57.675Z,8.90
2017-11-30T23:17:35.144Z,8.60
2017-11-30T23:20:14.332Z,8.70
2017-11-30T23:22:57.022Z,8.60
2017-11-30T23:25:31.595Z,8.30
2017-11-30T23:28:06.289Z,8.30
2017-11-30T23:30:41.987Z,8.10
2017-11-30T23:33:16.830Z,8.20
2017-11-30T23:35:55.478Z,8.30
2017-11-30T23:38:34.344Z,8.00
2017-11-30T23:41:09.058Z,7.60
2017-11-30T23:43:43.242Z,7.80
2017-11-30T23:46:20.158Z,7.70
2017-11-30T23:48:55.374Z,7.90
2017-11-30T23:51:29.883Z,7.70
2017-11-30T23:54:07.100Z,8.00
2017-11-30T23:56:42.712Z,7.70
2017-11-30T23:59:17.306Z,7.70
